createdAt,value
2018-04-28T00:00:49.185Z,5.75
2018-04-28T00:01:49.228Z,5.73
2018-04-28T00:02:49.225Z,5.70
2018-04-28T00:03:49.268Z,5.71
2018-04-28T00:04:49.168Z,5.68
2018-04-28T00:05:49.245Z,5.67
2018-04-28T00:06:49.197Z,5.68
2018-04-28T00:07:49.163Z,5.66
2018-04-28T00:08:49.234Z,5.62
2018-04-28T00:09:49.272Z,5.62
2018-04-28T00:10:49.152Z,5.70
2018-04-28T00:11:49.275Z,5.73
2018-04-28T00:12:49.262Z,5.70
2018-04-28T00:13:49.276Z,5.67
2018-04-28T00:14:49.295Z,5.68
2018-04-28T00:15:49.271Z,5.73
2018-04-28T00:16:49.204Z,5.71
2018-04-28T00:17:49.272Z,5.67
2018-04-28T00:18:49.207Z,5.63
2018-04-28T00:19:49.339Z,5.59
2018-04-28T00:20:49.218Z,5.55
2018-04-28T00:21:49.247Z,5.52
2018-04-28T00:22:49.282Z,5.46
2018-04-28T00:23:49.243Z,5.44
2018-04-28T00:24:49.262Z,5.41
2018-04-28T00:25:49.252Z,5.38
2018-04-28T00:26:49.147Z,5.40
2018-04-28T00:27:49.293Z,5.48
2018-04-28T00:28:49.163Z,5.55
2018-04-28T00:29:49.181Z,5.55
2018-04-28T00:30:49.247Z,5.53
2018-04-28T00:31:49.243Z,5.60
2018-04-28T00:32:49.245Z,5.60
2018-04-28T00:33:49.276Z,5.62
2018-04-28T00:34:49.276Z,5.57
2018-04-28T00:35:49.155Z,5.60
2018-04-28T00:36:49.271Z,5.60
2018-04-28T00:37:49.255Z,5.57
2018-04-28T00:38:49.221Z,5.53
2018-04-28T00:39:49.232Z,5.52
2018-04-28T00:40:49.283Z,5.60
2018-04-28T00:41:49.260Z,5.56
2018-04-28T00:42:49.175Z,5.57
2018-04-28T00:43:49.247Z,5.56
2018-04-28T00:44:49.215Z,5.64
2018-04-28T00:45:49.174Z,5.73
2018-04-28T00:46:49.142Z,5.86
2018-04-28T00:47:49.242Z,5.89
2018-04-28T00:48:49.122Z,5.99
2018-04-28T00:49:49.185Z,6.02
2018-04-28T00:50:49.216Z,6.03
2018-04-28T00:51:49.247Z,6.08
2018-04-28T00:52:49.182Z,6.06
2018-04-28T00:53:49.179Z,6.03
2018-04-28T00:54:49.281Z,6.03
2018-04-28T00:55:49.287Z,6.04
2018-04-28T00:56:49.184Z,6.06
2018-04-28T00:57:49.178Z,6.06
2018-04-28T00:58:49.232Z,6.06
2018-04-28T00:59:49.188Z,6.11
2018-04-28T01:00:49.298Z,6.09
2018-04-28T01:01:49.303Z,6.06
2018-04-28T01:02:49.253Z,6.06
2018-04-28T01:03:49.260Z,6.03
2018-04-28T01:04:49.173Z,6.06
2018-04-28T01:05:49.175Z,6.08
2018-04-28T01:06:49.194Z,6.11
2018-04-28T01:07:49.210Z,6.12
2018-04-28T01:08:49.263Z,6.11
2018-04-28T01:09:49.260Z,6.06
2018-04-28T01:10:49.268Z,6.06
2018-04-28T01:11:49.157Z,6.09
2018-04-28T01:12:49.202Z,6.11
2018-04-28T01:13:49.201Z,6.11
2018-04-28T01:14:49.204Z,6.11
2018-04-28T01:15:49.204Z,6.12
2018-04-28T01:16:49.237Z,6.16
2018-04-28T01:17:49.167Z,6.15
2018-04-28T01:18:49.211Z,6.12
2018-04-28T01:19:49.279Z,6.08
2018-04-28T01:20:49.278Z,6.09
2018-04-28T01:21:49.279Z,6.06
2018-04-28T01:22:49.235Z,6.06
2018-04-28T01:23:49.280Z,6.08
2018-04-28T01:24:49.282Z,6.09
2018-04-28T01:25:49.213Z,6.09
2018-04-28T01:26:49.284Z,6.08
2018-04-28T01:27:49.214Z,6.09
2018-04-28T01:28:49.281Z,6.06
2018-04-28T01:29:49.213Z,6.00
2018-04-28T01:30:49.214Z,5.96
2018-04-28T01:31:49.286Z,5.91
2018-04-28T01:32:49.285Z,5.89
2018-04-28T01:33:49.289Z,5.91
2018-04-28T01:34:49.304Z,5.95
2018-04-28T01:35:49.316Z,5.95
2018-04-28T01:36:49.290Z,5.95
2018-04-28T01:37:49.330Z,5.93
2018-04-28T01:38:49.286Z,5.92
2018-04-28T01:39:49.232Z,5.88
2018-04-28T01:40:49.333Z,5.91
2018-04-28T01:41:49.253Z,5.91
2018-04-28T01:42:49.185Z,5.92
2018-04-28T01:43:49.281Z,5.91
2018-04-28T01:44:49.248Z,5.91
2018-04-28T01:45:49.234Z,5.91
2018-04-28T01:46:49.250Z,5.84
2018-04-28T01:47:49.183Z,5.85
2018-04-28T01:48:49.231Z,5.85
2018-04-28T01:49:49.223Z,5.84
2018-04-28T01:50:49.288Z,5.85
2018-04-28T01:51:49.275Z,5.84
2018-04-28T01:52:49.233Z,5.85
2018-04-28T01:53:49.229Z,5.86
2018-04-28T01:54:49.232Z,5.85
2018-04-28T01:55:49.246Z,5.84
2018-04-28T01:56:49.317Z,5.86
2018-04-28T01:57:49.233Z,5.81
2018-04-28T01:58:49.303Z,5.77
2018-04-28T01:59:49.305Z,5.75
2018-04-28T02:00:49.306Z,5.71
2018-04-28T02:01:49.241Z,5.66
2018-04-28T02:02:49.240Z,5.62
2018-04-28T02:03:49.288Z,5.59
2018-04-28T02:04:49.297Z,5.57
2018-04-28T02:05:49.184Z,5.55
2018-04-28T02:06:49.237Z,5.53
2018-04-28T02:07:49.179Z,5.49
2018-04-28T02:08:49.209Z,5.44
2018-04-28T02:09:49.235Z,5.42
2018-04-28T02:10:49.289Z,5.37
2018-04-28T02:11:49.209Z,5.29
2018-04-28T02:12:49.187Z,5.23
2018-04-28T02:13:49.230Z,5.15
2018-04-28T02:14:49.306Z,5.07
2018-04-28T02:15:49.232Z,5.00
2018-04-28T02:16:49.231Z,4.99
2018-04-28T02:17:49.306Z,4.92
2018-04-28T02:18:49.333Z,4.88
2018-04-28T02:19:49.209Z,4.85
2018-04-28T02:20:49.308Z,4.84
2018-04-28T02:21:49.311Z,4.85
2018-04-28T02:22:49.218Z,4.92
2018-04-28T02:23:49.222Z,4.91
2018-04-28T02:24:49.270Z,4.88
2018-04-28T02:25:49.311Z,4.87
2018-04-28T02:26:49.240Z,4.88
2018-04-28T02:27:49.314Z,4.85
2018-04-28T02:28:49.257Z,4.93
2018-04-28T02:29:49.261Z,4.95
2018-04-28T02:30:49.243Z,4.93
2018-04-28T02:31:49.315Z,4.91
2018-04-28T02:32:49.337Z,4.89
2018-04-28T02:33:49.358Z,4.91
2018-04-28T02:34:49.250Z,4.93
2018-04-28T02:35:49.291Z,4.96
2018-04-28T02:36:49.232Z,4.99
2018-04-28T02:37:49.358Z,4.98
2018-04-28T02:38:49.306Z,4.95
2018-04-28T02:39:49.325Z,4.91
2018-04-28T02:40:49.303Z,4.85
2018-04-28T02:41:49.328Z,4.81
2018-04-28T02:42:49.332Z,4.89
2018-04-28T02:43:49.267Z,4.92
2018-04-28T02:44:49.337Z,4.99
2018-04-28T02:45:49.303Z,4.96
2018-04-28T02:46:49.331Z,4.93
2018-04-28T02:47:49.265Z,5.00
2018-04-28T02:48:49.328Z,5.03
2018-04-28T02:49:49.267Z,5.02
2018-04-28T02:50:49.236Z,4.99
2018-04-28T02:51:49.269Z,4.96
2018-04-28T02:52:49.333Z,4.99
2018-04-28T02:53:49.304Z,4.96
2018-04-28T02:54:49.332Z,4.92
2018-04-28T02:55:49.331Z,4.88
2018-04-28T02:56:49.296Z,4.88
2018-04-28T02:57:49.245Z,4.92
2018-04-28T02:58:49.258Z,4.91
2018-04-28T02:59:49.242Z,4.88
2018-04-28T03:00:49.334Z,4.85
2018-04-28T03:01:49.337Z,4.78
2018-04-28T03:02:49.311Z,4.71
2018-04-28T03:03:49.347Z,4.70
2018-04-28T03:04:49.363Z,4.66
2018-04-28T03:05:49.342Z,4.64
2018-04-28T03:06:49.343Z,4.64
2018-04-28T03:07:49.356Z,4.67
2018-04-28T03:08:49.418Z,4.69
2018-04-28T03:09:49.315Z,4.69
2018-04-28T03:10:49.381Z,4.66
2018-04-28T03:11:49.310Z,4.66
2018-04-28T03:12:49.269Z,4.66
2018-04-28T03:13:49.352Z,4.64
2018-04-28T03:14:49.345Z,4.64
2018-04-28T03:15:49.255Z,4.66
2018-04-28T03:16:49.349Z,4.70
2018-04-28T03:17:49.225Z,4.75
2018-04-28T03:18:49.279Z,4.78
2018-04-28T03:19:49.344Z,4.85
2018-04-28T03:20:49.315Z,4.92
2018-04-28T03:21:49.345Z,4.93
2018-04-28T03:22:49.348Z,4.92
2018-04-28T03:23:49.260Z,4.89
2018-04-28T03:24:49.315Z,4.85
2018-04-28T03:25:49.275Z,4.81
2018-04-28T03:26:49.261Z,4.77
2018-04-28T03:27:49.351Z,4.75
2018-04-28T03:28:49.298Z,4.81
2018-04-28T03:29:49.263Z,4.85
2018-04-28T03:30:49.353Z,4.89
2018-04-28T03:31:49.359Z,4.91
2018-04-28T03:32:49.248Z,4.88
2018-04-28T03:33:49.284Z,4.82
2018-04-28T03:34:49.352Z,4.80
2018-04-28T03:35:49.325Z,4.78
2018-04-28T03:36:49.355Z,4.75
2018-04-28T03:37:49.352Z,4.75
2018-04-28T03:38:49.359Z,4.71
2018-04-28T03:39:49.358Z,4.73
2018-04-28T03:40:49.305Z,4.71
2018-04-28T03:41:49.359Z,4.73
2018-04-28T03:42:49.333Z,4.70
2018-04-28T03:43:49.347Z,4.71
2018-04-28T03:44:49.364Z,4.73
2018-04-28T03:45:49.390Z,4.71
2018-04-28T03:46:49.339Z,4.73
2018-04-28T03:47:49.345Z,4.73
2018-04-28T03:48:49.330Z,4.71
2018-04-28T03:49:49.389Z,4.71
2018-04-28T03:50:49.347Z,4.77
2018-04-28T03:51:49.370Z,4.81
2018-04-28T03:52:49.304Z,4.82
2018-04-28T03:53:49.393Z,4.80
2018-04-28T03:54:49.308Z,4.78
2018-04-28T03:55:49.314Z,4.77
2018-04-28T03:56:49.374Z,4.74
2018-04-28T03:57:49.380Z,4.77
2018-04-28T03:58:49.325Z,4.74
2018-04-28T03:59:49.311Z,4.73
2018-04-28T04:00:49.386Z,4.71
2018-04-28T04:01:49.312Z,4.70
2018-04-28T04:02:49.357Z,4.69
2018-04-28T04:03:49.310Z,4.64
2018-04-28T04:04:49.244Z,4.60
2018-04-28T04:05:49.309Z,4.54
2018-04-28T04:06:49.251Z,4.50
2018-04-28T04:07:49.359Z,4.44
2018-04-28T04:08:49.371Z,4.39
2018-04-28T04:09:49.245Z,4.32
2018-04-28T04:10:49.248Z,4.28
2018-04-28T04:11:49.323Z,4.24
2018-04-28T04:12:49.316Z,4.22
2018-04-28T04:13:49.407Z,4.18
2018-04-28T04:14:49.316Z,4.15
2018-04-28T04:15:49.389Z,4.08
2018-04-28T04:16:49.316Z,4.03
2018-04-28T04:17:49.389Z,4.00
2018-04-28T04:18:49.322Z,4.00
2018-04-28T04:19:49.352Z,3.99
2018-04-28T04:20:49.398Z,4.07
2018-04-28T04:21:49.319Z,4.15
2018-04-28T04:22:49.371Z,4.22
2018-04-28T04:23:49.459Z,4.29
2018-04-28T04:24:49.309Z,4.29
2018-04-28T04:25:49.371Z,4.32
2018-04-28T04:26:49.428Z,4.30
2018-04-28T04:27:49.487Z,4.32
2018-04-28T04:28:49.354Z,4.30
2018-04-28T04:29:49.419Z,4.32
2018-04-28T04:30:49.371Z,4.33
2018-04-28T04:31:49.341Z,4.35
2018-04-28T04:32:49.359Z,4.37
2018-04-28T04:33:49.300Z,4.39
2018-04-28T04:34:49.381Z,4.40
2018-04-28T04:35:49.355Z,4.43
2018-04-28T04:36:49.314Z,4.43
2018-04-28T04:37:49.435Z,4.43
2018-04-28T04:38:49.336Z,4.43
2018-04-28T04:39:49.397Z,4.41
2018-04-28T04:40:49.331Z,4.40
2018-04-28T04:41:49.272Z,4.39
2018-04-28T04:42:49.303Z,4.37
2018-04-28T04:43:49.403Z,4.36
2018-04-28T04:44:49.334Z,4.35
2018-04-28T04:45:49.403Z,4.35
2018-04-28T04:46:49.338Z,4.37
2018-04-28T04:47:49.443Z,4.41
2018-04-28T04:48:49.410Z,4.47
2018-04-28T04:49:49.408Z,4.47
2018-04-28T04:50:49.337Z,4.48
2018-04-28T04:51:49.404Z,4.51
2018-04-28T04:52:49.344Z,4.52
2018-04-28T04:53:49.426Z,4.55
2018-04-28T04:54:49.415Z,4.55
2018-04-28T04:55:49.333Z,4.54
2018-04-28T04:56:49.430Z,4.54
2018-04-28T04:57:49.410Z,4.55
2018-04-28T04:58:49.334Z,4.60
2018-04-28T04:59:49.368Z,4.62
2018-04-28T05:00:49.535Z,4.63
2018-04-28T05:01:49.338Z,4.66
2018-04-28T05:02:49.447Z,4.71
2018-04-28T05:03:49.418Z,4.74
2018-04-28T05:04:49.345Z,4.82
2018-04-28T05:05:49.416Z,4.92
2018-04-28T05:06:49.355Z,4.96
2018-04-28T05:07:49.349Z,4.98
2018-04-28T05:08:49.352Z,4.99
2018-04-28T05:09:49.419Z,5.00
2018-04-28T05:10:49.347Z,5.00
2018-04-28T05:11:49.420Z,5.03
2018-04-28T05:12:49.423Z,5.04
2018-04-28T05:13:49.363Z,5.06
2018-04-28T05:14:49.392Z,5.09
2018-04-28T05:15:49.386Z,5.11
2018-04-28T05:16:49.388Z,5.14
2018-04-28T05:17:49.443Z,5.18
2018-04-28T05:18:49.390Z,5.21
2018-04-28T05:19:49.394Z,5.26
2018-04-28T05:20:49.394Z,5.27
2018-04-28T05:21:49.344Z,5.37
2018-04-28T05:22:49.453Z,5.45
2018-04-28T05:23:49.377Z,5.49
2018-04-28T05:24:49.277Z,5.55
2018-04-28T05:25:49.278Z,5.62
2018-04-28T05:26:49.405Z,5.64
2018-04-28T05:27:49.285Z,5.68
2018-04-28T05:28:49.383Z,5.73
2018-04-28T05:29:49.256Z,5.77
2018-04-28T05:30:49.286Z,5.79
2018-04-28T05:31:49.287Z,5.82
2018-04-28T05:32:49.292Z,5.85
2018-04-28T05:33:49.462Z,5.88
2018-04-28T05:34:49.435Z,5.91
2018-04-28T05:35:49.458Z,5.96
2018-04-28T05:36:49.435Z,6.00
2018-04-28T05:37:49.406Z,6.06
2018-04-28T05:38:49.474Z,6.12
2018-04-28T05:39:49.437Z,6.18
2018-04-28T05:40:49.407Z,6.20
2018-04-28T05:41:49.411Z,6.22
2018-04-28T05:42:49.347Z,6.26
2018-04-28T05:43:49.443Z,6.27
2018-04-28T05:44:49.334Z,6.34
2018-04-28T05:45:49.378Z,6.38
2018-04-28T05:46:49.444Z,6.43
2018-04-28T05:47:49.445Z,6.48
2018-04-28T05:48:49.464Z,6.55
2018-04-28T05:49:49.377Z,6.63
2018-04-28T05:50:49.445Z,6.70
2018-04-28T05:51:49.381Z,6.75
2018-04-28T05:52:49.449Z,6.81
2018-04-28T05:53:49.352Z,6.87
2018-04-28T05:54:49.427Z,6.93
2018-04-28T05:55:49.470Z,6.98
2018-04-28T05:56:49.426Z,7.05
2018-04-28T05:57:49.527Z,7.09
2018-04-28T05:58:49.443Z,7.13
2018-04-28T05:59:49.446Z,7.19
2018-04-28T06:00:49.484Z,7.23
2018-04-28T06:01:49.424Z,7.29
2018-04-28T06:02:49.470Z,7.34
2018-04-28T06:03:49.354Z,7.44
2018-04-28T06:04:49.346Z,7.52
2018-04-28T06:05:49.315Z,7.59
2018-04-28T06:06:49.352Z,7.68
2018-04-28T06:07:49.410Z,7.75
2018-04-28T06:08:49.305Z,7.82
2018-04-28T06:09:49.408Z,7.87
2018-04-28T06:10:49.316Z,7.90
2018-04-28T06:11:49.364Z,7.90
2018-04-28T06:12:49.354Z,7.92
2018-04-28T06:13:49.365Z,7.87
2018-04-28T06:14:49.490Z,7.92
2018-04-28T06:15:49.497Z,7.99
2018-04-28T06:16:49.463Z,8.05
2018-04-28T06:17:49.484Z,8.09
2018-04-28T06:18:49.496Z,8.13
2018-04-28T06:19:49.387Z,8.19
2018-04-28T06:20:49.425Z,8.27
2018-04-28T06:21:49.499Z,8.33
2018-04-28T06:22:49.363Z,8.45
2018-04-28T06:23:49.468Z,8.60
2018-04-28T06:24:49.467Z,8.72
2018-04-28T06:25:49.489Z,8.91
2018-04-28T06:26:49.484Z,9.11
2018-04-28T06:27:49.422Z,9.28
2018-04-28T06:28:49.469Z,9.46
2018-04-28T06:29:49.469Z,9.62
2018-04-28T06:30:49.410Z,9.78
2018-04-28T06:31:49.466Z,9.87
2018-04-28T06:32:49.505Z,10.01
2018-04-28T06:33:49.437Z,10.13
2018-04-28T06:34:49.373Z,10.24
2018-04-28T06:35:49.544Z,10.38
2018-04-28T06:36:49.473Z,10.54
2018-04-28T06:37:49.447Z,10.67
2018-04-28T06:38:49.445Z,10.80
2018-04-28T06:39:49.514Z,10.98
2018-04-28T06:40:49.478Z,11.07
2018-04-28T06:41:49.433Z,11.18
2018-04-28T06:42:49.499Z,11.29
2018-04-28T06:43:49.466Z,11.39
2018-04-28T06:44:49.385Z,11.43
2018-04-28T06:45:49.390Z,11.43
2018-04-28T06:46:49.468Z,11.56
2018-04-28T06:47:49.382Z,11.69
2018-04-28T06:48:49.370Z,11.82
2018-04-28T06:49:49.468Z,11.84
2018-04-28T06:50:49.369Z,11.97
2018-04-28T06:51:49.349Z,12.08
2018-04-28T06:52:49.478Z,12.26
2018-04-28T06:53:49.479Z,12.28
2018-04-28T06:54:49.413Z,12.25
2018-04-28T06:55:49.484Z,12.28
2018-04-28T06:56:49.396Z,12.28
2018-04-28T06:57:49.538Z,12.24
2018-04-28T06:58:49.370Z,12.33
2018-04-28T06:59:49.407Z,12.37
2018-04-28T07:00:49.480Z,12.50
2018-04-28T07:01:49.452Z,12.57
2018-04-28T07:02:49.488Z,12.62
2018-04-28T07:03:49.427Z,12.68
2018-04-28T07:04:49.427Z,12.62
2018-04-28T07:05:49.497Z,12.58
2018-04-28T07:06:49.427Z,12.55
2018-04-28T07:07:49.497Z,12.58
2018-04-28T07:08:49.428Z,12.50
2018-04-28T07:09:49.498Z,12.50
2018-04-28T07:10:49.473Z,12.58
2018-04-28T07:11:49.497Z,12.72
2018-04-28T07:12:49.432Z,12.89
2018-04-28T07:13:49.495Z,12.91
2018-04-28T07:14:49.433Z,12.94
2018-04-28T07:15:49.497Z,12.94
2018-04-28T07:16:49.432Z,12.95
2018-04-28T07:17:49.500Z,13.00
2018-04-28T07:18:49.431Z,12.99
2018-04-28T07:19:49.531Z,12.96
2018-04-28T07:20:49.434Z,13.09
2018-04-28T07:21:49.504Z,13.13
2018-04-28T07:22:49.439Z,13.29
2018-04-28T07:23:49.534Z,13.46
2018-04-28T07:24:49.523Z,13.70
2018-04-28T07:25:49.540Z,13.76
2018-04-28T07:26:49.475Z,13.91
2018-04-28T07:27:49.542Z,13.96
2018-04-28T07:28:49.465Z,14.03
2018-04-28T07:29:49.467Z,14.17
2018-04-28T07:30:49.478Z,14.20
2018-04-28T07:31:49.483Z,14.15
2018-04-28T07:32:49.481Z,14.27
2018-04-28T07:33:49.442Z,14.29
2018-04-28T07:34:49.413Z,14.31
2018-04-28T07:35:49.444Z,14.31
2018-04-28T07:36:49.511Z,14.32
2018-04-28T07:37:49.449Z,14.31
2018-04-28T07:40:53.916Z,14.28
2018-04-28T07:41:49.472Z,14.39
2018-04-28T07:42:49.551Z,14.47
2018-04-28T07:43:49.518Z,14.49
2018-04-28T07:44:49.452Z,14.55
2018-04-28T07:45:49.522Z,14.58
2018-04-28T07:46:49.769Z,14.66
2018-04-28T07:47:49.518Z,14.82
2018-04-28T07:48:49.452Z,15.02
2018-04-28T07:49:49.519Z,15.02
2018-04-28T07:50:49.455Z,15.07
2018-04-28T07:51:49.524Z,15.14
2018-04-28T07:52:49.459Z,15.17
2018-04-28T07:53:49.445Z,15.24
2018-04-28T07:54:49.488Z,15.33
2018-04-28T07:55:49.508Z,15.47
2018-04-28T07:56:49.489Z,15.47
2018-04-28T07:57:49.548Z,15.53
2018-04-28T07:58:49.525Z,15.65
2018-04-28T07:59:49.553Z,15.82
2018-04-28T08:00:49.526Z,15.83
2018-04-28T08:01:49.491Z,15.77
2018-04-28T08:02:49.552Z,15.87
2018-04-28T08:03:49.566Z,16.05
2018-04-28T08:04:49.469Z,16.25
2018-04-28T08:05:49.572Z,16.28
2018-04-28T08:06:49.574Z,16.05
2018-04-28T08:07:49.454Z,16.00
2018-04-28T08:08:49.527Z,16.11
2018-04-28T08:09:49.499Z,16.11
2018-04-28T08:10:49.532Z,16.07
2018-04-28T08:11:49.567Z,16.13
2018-04-28T08:12:49.510Z,16.27
2018-04-28T08:13:49.572Z,16.54
2018-04-28T08:14:49.497Z,16.88
2018-04-28T08:15:49.509Z,16.94
2018-04-28T08:16:49.507Z,17.24
2018-04-28T08:17:49.563Z,17.43
2018-04-28T08:18:49.506Z,17.26
2018-04-28T08:19:49.501Z,17.13
2018-04-28T08:20:49.560Z,16.95
2018-04-28T08:21:49.576Z,16.98
2018-04-28T08:22:49.536Z,16.85
2018-04-28T08:23:49.559Z,16.74
2018-04-28T08:24:49.546Z,16.83
2018-04-28T08:25:49.477Z,16.76
2018-04-28T08:26:49.546Z,16.83
2018-04-28T08:27:49.546Z,16.98
2018-04-28T08:28:49.482Z,17.14
2018-04-28T08:29:49.546Z,17.29
2018-04-28T08:30:49.546Z,17.58
2018-04-28T08:31:49.553Z,17.53
2018-04-28T08:32:49.483Z,17.55
2018-04-28T08:33:49.585Z,17.76
2018-04-28T08:34:49.580Z,17.66
2018-04-28T08:35:49.588Z,17.75
2018-04-28T08:36:49.626Z,17.80
2018-04-28T08:37:49.519Z,17.91
2018-04-28T08:38:49.473Z,17.98
2018-04-28T08:39:49.485Z,18.16
2018-04-28T08:40:49.461Z,18.07
2018-04-28T08:41:49.465Z,17.92
2018-04-28T08:42:49.568Z,17.46
2018-04-28T08:43:49.554Z,17.20
2018-04-28T08:44:49.561Z,17.25
2018-04-28T08:45:49.497Z,17.40
2018-04-28T08:46:49.537Z,17.47
2018-04-28T08:47:49.555Z,17.61
2018-04-28T08:48:49.458Z,17.54
2018-04-28T08:49:49.580Z,17.61
2018-04-28T08:50:49.517Z,17.69
2018-04-28T08:51:49.518Z,17.85
2018-04-28T08:52:49.593Z,17.88
2018-04-28T08:53:49.594Z,17.99
2018-04-28T08:54:49.483Z,17.91
2018-04-28T08:55:49.524Z,17.66
2018-04-28T08:56:49.488Z,17.58
2018-04-28T08:57:49.534Z,17.57
2018-04-28T08:58:49.564Z,17.53
2018-04-28T08:59:49.544Z,17.39
2018-04-28T09:00:49.486Z,17.32
2018-04-28T09:01:49.593Z,17.24
2018-04-28T09:02:49.565Z,17.12
2018-04-28T09:03:49.600Z,17.02
2018-04-28T09:04:49.547Z,17.08
2018-04-28T09:05:49.600Z,17.20
2018-04-28T09:06:49.639Z,17.09
2018-04-28T09:07:49.524Z,16.94
2018-04-28T09:08:49.572Z,16.81
2018-04-28T09:09:49.526Z,16.85
2018-04-28T09:10:49.588Z,16.83
2018-04-28T09:11:49.567Z,16.81
2018-04-28T09:12:49.532Z,16.98
2018-04-28T09:13:49.546Z,17.06
2018-04-28T09:14:49.609Z,17.35
2018-04-28T09:15:49.598Z,17.75
2018-04-28T09:16:49.577Z,18.03
2018-04-28T09:17:49.611Z,18.32
2018-04-28T09:18:49.608Z,18.50
2018-04-28T09:19:49.540Z,18.57
2018-04-28T09:20:49.554Z,18.65
2018-04-28T09:21:49.485Z,18.59
2018-04-28T09:22:49.617Z,18.61
2018-04-28T09:23:49.516Z,18.61
2018-04-28T09:24:49.514Z,18.66
2018-04-28T09:25:49.550Z,19.02
2018-04-28T09:26:49.513Z,19.08
2018-04-28T09:27:49.516Z,18.84
2018-04-28T09:28:49.586Z,18.61
2018-04-28T09:29:49.518Z,18.36
2018-04-28T09:30:49.584Z,17.98
2018-04-28T09:31:49.521Z,17.88
2018-04-28T09:32:49.481Z,17.53
2018-04-28T09:33:49.522Z,17.47
2018-04-28T09:34:49.588Z,17.32
2018-04-28T09:35:49.589Z,17.20
2018-04-28T09:36:49.523Z,17.12
2018-04-28T09:37:49.594Z,16.94
2018-04-28T09:38:49.524Z,16.83
2018-04-28T09:39:49.523Z,16.76
2018-04-28T09:40:49.592Z,16.66
2018-04-28T09:41:49.526Z,16.63
2018-04-28T09:42:49.538Z,16.55
2018-04-28T09:43:49.493Z,16.44
2018-04-28T09:44:49.544Z,16.47
2018-04-28T09:45:49.493Z,16.50
2018-04-28T09:46:49.496Z,16.48
2018-04-28T09:47:49.543Z,16.41
2018-04-28T09:48:49.544Z,16.39
2018-04-28T09:49:49.494Z,16.43
2018-04-28T09:50:49.494Z,16.39
2018-04-28T09:51:49.505Z,16.50
2018-04-28T09:52:49.548Z,16.59
2018-04-28T09:53:49.561Z,16.68
2018-04-28T09:54:49.531Z,16.69
2018-04-28T09:55:49.584Z,16.76
2018-04-28T09:56:49.588Z,16.79
2018-04-28T09:57:49.556Z,16.81
2018-04-28T09:58:49.553Z,16.85
2018-04-28T09:59:49.596Z,16.85
2018-04-28T10:00:49.597Z,16.83
2018-04-28T10:01:49.558Z,16.81
2018-04-28T10:02:49.556Z,16.88
2018-04-28T10:03:49.542Z,16.99
2018-04-28T10:04:49.543Z,17.16
2018-04-28T10:05:49.683Z,17.29
2018-04-28T10:06:49.611Z,17.40
2018-04-28T10:07:49.546Z,17.54
2018-04-28T10:08:49.609Z,17.65
2018-04-28T10:09:49.608Z,17.71
2018-04-28T10:10:49.613Z,17.68
2018-04-28T10:11:49.608Z,17.65
2018-04-28T10:12:49.642Z,17.58
2018-04-28T10:13:49.613Z,17.46
2018-04-28T10:14:49.619Z,17.40
2018-04-28T10:15:49.550Z,17.42
2018-04-28T10:16:49.614Z,17.28
2018-04-28T10:17:49.619Z,17.08
2018-04-28T10:18:49.551Z,17.01
2018-04-28T10:19:49.553Z,16.95
2018-04-28T10:20:49.615Z,16.94
2018-04-28T10:21:49.619Z,16.92
2018-04-28T10:22:49.598Z,16.91
2018-04-28T10:23:49.581Z,16.85
2018-04-28T10:24:49.596Z,16.95
2018-04-28T10:25:49.577Z,17.10
2018-04-28T10:26:49.518Z,17.08
2018-04-28T10:27:49.621Z,17.10
2018-04-28T10:28:49.599Z,17.14
2018-04-28T10:29:49.586Z,17.24
2018-04-28T10:30:49.658Z,17.18
2018-04-28T10:31:49.594Z,17.13
2018-04-28T10:32:49.620Z,17.21
2018-04-28T10:33:49.699Z,17.25
2018-04-28T10:34:49.574Z,17.35
2018-04-28T10:35:49.531Z,17.50
2018-04-28T10:36:49.529Z,17.80
2018-04-28T10:37:49.624Z,18.18
2018-04-28T10:38:49.531Z,18.31
2018-04-28T10:39:49.532Z,18.41
2018-04-28T10:40:49.577Z,18.72
2018-04-28T10:41:49.511Z,19.01
2018-04-28T10:42:49.622Z,19.10
2018-04-28T10:43:49.587Z,19.44
2018-04-28T10:44:49.597Z,19.85
2018-04-28T10:45:49.663Z,20.10
2018-04-28T10:46:49.534Z,20.31
2018-04-28T10:47:49.553Z,19.96
2018-04-28T10:48:49.661Z,19.51
2018-04-28T10:49:49.538Z,19.25
2018-04-28T10:50:49.673Z,19.29
2018-04-28T10:51:49.659Z,19.13
2018-04-28T10:52:49.602Z,18.94
2018-04-28T10:53:49.674Z,19.09
2018-04-28T10:54:49.733Z,19.20
2018-04-28T10:55:49.572Z,19.51
2018-04-28T10:56:49.570Z,19.62
2018-04-28T10:57:49.575Z,19.58
2018-04-28T10:58:49.646Z,19.51
2018-04-28T10:59:49.574Z,19.54
2018-04-28T11:00:49.664Z,19.62
2018-04-28T11:01:49.577Z,19.83
2018-04-28T11:02:49.652Z,19.90
2018-04-28T11:03:49.582Z,19.85
2018-04-28T11:04:49.646Z,19.99
2018-04-28T11:05:49.685Z,20.06
2018-04-28T11:06:49.611Z,20.20
2018-04-28T11:07:49.610Z,20.35
2018-04-28T11:08:49.648Z,20.53
2018-04-28T11:09:49.674Z,20.53
2018-04-28T11:10:49.653Z,20.32
2018-04-28T11:11:49.621Z,20.47
2018-04-28T11:12:49.623Z,20.32
2018-04-28T11:13:49.613Z,20.30
2018-04-28T11:14:49.600Z,20.38
2018-04-28T11:15:49.585Z,20.43
2018-04-28T11:16:49.536Z,20.42
2018-04-28T11:17:49.651Z,20.60
2018-04-28T11:18:49.534Z,20.68
2018-04-28T11:19:49.733Z,20.75
2018-04-28T11:20:49.606Z,20.94
2018-04-28T11:21:49.538Z,20.97
2018-04-28T11:22:49.560Z,20.60
2018-04-28T11:23:49.536Z,20.53
2018-04-28T11:24:49.591Z,20.35
2018-04-28T11:25:49.732Z,20.07
2018-04-28T11:26:49.589Z,19.73
2018-04-28T11:27:49.588Z,19.32
2018-04-28T11:28:49.592Z,19.09
2018-04-28T11:29:49.591Z,18.83
2018-04-28T11:30:49.662Z,18.57
2018-04-28T11:31:49.593Z,18.52
2018-04-28T11:32:49.664Z,18.41
2018-04-28T11:33:49.595Z,18.38
2018-04-28T11:34:49.690Z,18.57
2018-04-28T11:35:49.631Z,18.80
2018-04-28T11:36:49.625Z,18.88
2018-04-28T11:37:49.625Z,19.10
2018-04-28T11:38:49.640Z,19.40
2018-04-28T11:39:49.634Z,19.66
2018-04-28T11:40:49.623Z,19.68
2018-04-28T11:41:49.640Z,19.99
2018-04-28T11:42:49.575Z,20.07
2018-04-28T11:43:49.693Z,20.17
2018-04-28T11:44:49.526Z,20.18
2018-04-28T11:45:49.565Z,19.98
2018-04-28T11:46:49.663Z,19.95
2018-04-28T11:47:49.662Z,19.79
2018-04-28T11:48:49.575Z,19.66
2018-04-28T11:49:49.607Z,19.62
2018-04-28T11:50:49.659Z,19.68
2018-04-28T11:51:49.632Z,19.65
2018-04-28T11:52:49.708Z,19.43
2018-04-28T11:53:49.650Z,19.50
2018-04-28T11:54:49.680Z,19.57
2018-04-28T11:55:49.613Z,19.77
2018-04-28T11:56:49.680Z,19.95
2018-04-28T11:57:49.677Z,19.96
2018-04-28T11:58:49.707Z,19.92
2018-04-28T11:59:49.679Z,19.84
2018-04-28T12:00:49.666Z,19.73
2018-04-28T12:01:49.617Z,19.81
2018-04-28T12:02:49.609Z,19.80
2018-04-28T12:03:49.702Z,19.79
2018-04-28T12:04:49.711Z,20.06
2018-04-28T12:05:49.620Z,20.23
2018-04-28T12:06:49.655Z,20.35
2018-04-28T12:07:49.589Z,20.68
2018-04-28T12:08:49.729Z,20.64
2018-04-28T12:09:49.655Z,20.45
2018-04-28T12:10:49.728Z,20.47
2018-04-28T12:11:49.593Z,20.42
2018-04-28T12:12:49.648Z,20.56
2018-04-28T12:13:49.708Z,20.47
2018-04-28T12:14:49.687Z,20.66
2018-04-28T12:15:49.693Z,20.97
2018-04-28T12:16:49.621Z,20.79
2018-04-28T12:17:49.691Z,20.57
2018-04-28T12:18:49.623Z,20.45
2018-04-28T12:19:49.692Z,20.50
2018-04-28T12:20:49.623Z,20.54
2018-04-28T12:21:49.629Z,20.65
2018-04-28T12:22:49.723Z,20.57
2018-04-28T12:23:49.628Z,20.75
2018-04-28T12:24:49.648Z,21.04
2018-04-28T12:25:49.628Z,21.39
2018-04-28T12:26:49.705Z,21.35
2018-04-28T12:27:49.697Z,21.20
2018-04-28T12:28:49.633Z,20.82
2018-04-28T12:30:49.630Z,20.47
2018-04-28T12:31:49.630Z,20.66
2018-04-28T12:32:49.705Z,20.91
2018-04-28T12:33:49.640Z,21.18
2018-04-28T12:34:49.703Z,21.45
2018-04-28T12:35:49.634Z,21.40
2018-04-28T12:36:49.734Z,21.35
2018-04-28T12:37:49.639Z,20.95
2018-04-28T12:38:49.637Z,20.75
2018-04-28T12:39:49.641Z,20.57
2018-04-28T12:40:49.704Z,20.39
2018-04-28T12:41:49.635Z,20.47
2018-04-28T12:42:49.712Z,20.70
2018-04-28T12:43:49.722Z,21.04
2018-04-28T12:44:49.666Z,21.32
2018-04-28T12:45:49.616Z,21.36
2018-04-28T12:46:49.709Z,21.39
2018-04-28T12:47:49.618Z,21.49
2018-04-28T12:48:49.681Z,21.71
2018-04-28T12:49:49.743Z,22.09
2018-04-28T12:50:49.774Z,22.17
2018-04-28T12:51:49.737Z,22.31
2018-04-28T12:52:49.670Z,22.42
2018-04-28T12:53:49.685Z,22.06
2018-04-28T12:54:49.708Z,21.57
2018-04-28T12:55:49.603Z,21.50
2018-04-28T12:56:49.700Z,21.57
2018-04-28T12:57:49.720Z,21.22
2018-04-28T12:58:49.623Z,21.01
2018-04-28T12:59:49.722Z,21.17
2018-04-28T13:00:49.625Z,21.42
2018-04-28T13:01:49.627Z,21.43
2018-04-28T13:02:49.736Z,21.65
2018-04-28T13:03:49.657Z,21.53
2018-04-28T13:04:49.594Z,21.56
2018-04-28T13:05:49.679Z,21.56
2018-04-28T13:06:49.588Z,21.54
2018-04-28T13:07:49.593Z,21.54
2018-04-28T13:08:49.784Z,21.57